createdAt,value
2019-01-15T00:00:11.396Z,5.20
2019-01-15T00:01:16.154Z,5.20
2019-01-15T00:02:20.869Z,5.20
2019-01-15T00:03:27.244Z,5.20
2019-01-15T00:04:34.870Z,5.20
2019-01-15T00:05:40.165Z,5.30
2019-01-15T00:06:45.035Z,5.30
2019-01-15T00:07:49.995Z,5.40
2019-01-15T00:08:54.858Z,5.40
2019-01-15T00:09:59.676Z,5.40
2019-01-15T00:11:04.599Z,5.40
2019-01-15T00:12:09.770Z,5.40
2019-01-15T00:13:14.504Z,5.40
2019-01-15T00:14:19.339Z,5.40
2019-01-15T00:15:24.183Z,5.40
2019-01-15T00:16:28.968Z,5.40
2019-01-15T00:17:33.758Z,5.40
2019-01-15T00:18:42.769Z,5.40
2019-01-15T00:19:47.635Z,5.40
2019-01-15T00:20:55.797Z,5.40
2019-01-15T00:22:00.819Z,5.30
2019-01-15T00:23:05.580Z,5.30
2019-01-15T00:24:10.362Z,5.30
2019-01-15T00:25:15.265Z,5.40
2019-01-15T00:26:20.056Z,5.40
2019-01-15T00:27:27.184Z,5.40
2019-01-15T00:28:31.977Z,5.40
2019-01-15T00:29:36.729Z,5.40
2019-01-15T00:30:44.148Z,5.40
2019-01-15T00:31:48.976Z,5.40
2019-01-15T00:32:53.964Z,5.40
2019-01-15T00:33:58.817Z,5.40
2019-01-15T00:35:03.584Z,5.40
2019-01-15T00:36:10.070Z,5.50
2019-01-15T00:37:14.852Z,5.60
2019-01-15T00:38:19.576Z,5.70
2019-01-15T00:39:24.353Z,5.70
2019-01-15T00:40:29.137Z,5.70
2019-01-15T00:41:34.024Z,5.70
2019-01-15T00:42:38.840Z,5.60
2019-01-15T00:43:43.852Z,5.60
2019-01-15T00:44:48.613Z,5.50
2019-01-15T00:45:55.621Z,5.50
2019-01-15T00:47:00.483Z,5.50
2019-01-15T00:48:05.538Z,5.60
2019-01-15T00:49:10.296Z,5.50
2019-01-15T00:50:16.314Z,5.60
2019-01-15T00:51:21.080Z,5.60
2019-01-15T00:52:27.825Z,5.60
2019-01-15T00:53:32.335Z,5.60
2019-01-15T00:54:37.087Z,5.70
2019-01-15T00:55:41.804Z,5.70
2019-01-15T00:56:47.317Z,5.70
2019-01-15T00:57:56.816Z,5.60
2019-01-15T00:59:04.267Z,5.60
2019-01-15T01:00:18.981Z,5.50
2019-01-15T01:01:23.801Z,5.50
2019-01-15T01:02:29.047Z,5.50
2019-01-15T01:03:33.816Z,5.50
2019-01-15T01:04:38.674Z,5.50
2019-01-15T01:05:43.720Z,5.50
2019-01-15T01:06:48.721Z,5.50
2019-01-15T01:07:53.625Z,5.40
2019-01-15T01:08:59.021Z,5.50
2019-01-15T01:10:04.228Z,5.50
2019-01-15T01:11:09.884Z,5.40
2019-01-15T01:12:14.771Z,5.40
2019-01-15T01:13:19.587Z,5.40
2019-01-15T01:14:24.747Z,5.40
2019-01-15T01:15:29.520Z,5.40
2019-01-15T01:16:34.256Z,5.50
2019-01-15T01:17:39.075Z,5.50
2019-01-15T01:18:45.918Z,5.50
2019-01-15T01:19:50.665Z,5.60
2019-01-15T01:20:55.879Z,5.60
2019-01-15T01:22:00.660Z,5.60
2019-01-15T01:23:05.712Z,5.60
2019-01-15T01:24:10.554Z,5.70
2019-01-15T01:25:15.709Z,5.60
2019-01-15T01:26:20.512Z,5.60
2019-01-15T01:27:25.814Z,5.60
2019-01-15T01:28:30.666Z,5.50
2019-01-15T01:29:35.473Z,5.60
2019-01-15T01:30:40.387Z,5.50
2019-01-15T01:31:45.236Z,5.50
2019-01-15T01:32:50.175Z,5.60
2019-01-15T01:33:55.742Z,5.60
2019-01-15T01:35:00.736Z,5.70
2019-01-15T01:36:05.741Z,5.70
2019-01-15T01:37:10.544Z,5.70
2019-01-15T01:38:15.293Z,5.70
2019-01-15T01:39:20.085Z,5.70
2019-01-15T01:40:25.160Z,5.70
2019-01-15T01:41:29.924Z,5.60
2019-01-15T01:42:34.685Z,5.60
2019-01-15T01:43:39.386Z,5.60
2019-01-15T01:44:44.169Z,5.60
2019-01-15T01:45:48.950Z,5.60
2019-01-15T01:46:53.744Z,5.60
2019-01-15T01:47:58.546Z,5.60
2019-01-15T01:49:03.240Z,5.60
2019-01-15T01:50:09.007Z,5.60
2019-01-15T01:51:13.807Z,5.50
2019-01-15T01:52:18.544Z,5.50
2019-01-15T01:53:23.270Z,5.50
2019-01-15T01:54:28.035Z,5.40
2019-01-15T01:55:32.832Z,5.40
2019-01-15T01:56:37.548Z,5.40
2019-01-15T01:57:42.271Z,5.40
2019-01-15T01:58:47.043Z,5.40
2019-01-15T01:59:51.841Z,5.40
2019-01-15T02:00:59.128Z,5.40
2019-01-15T02:02:04.035Z,5.40
2019-01-15T02:03:14.756Z,5.40
2019-01-15T02:04:19.520Z,5.40
2019-01-15T02:05:26.827Z,5.40
2019-01-15T02:06:35.046Z,5.40
2019-01-15T02:07:39.780Z,5.30
2019-01-15T02:08:44.522Z,5.40
2019-01-15T02:09:49.524Z,5.40
2019-01-15T02:10:56.157Z,5.50
2019-01-15T02:12:04.283Z,5.50
2019-01-15T02:13:11.785Z,5.50
2019-01-15T02:14:16.529Z,5.60
2019-01-15T02:15:23.665Z,5.60
2019-01-15T02:16:28.760Z,5.70
2019-01-15T02:17:34.950Z,5.70
2019-01-15T02:18:39.692Z,5.70
2019-01-15T02:19:44.463Z,5.70
2019-01-15T02:20:49.136Z,5.70
2019-01-15T02:21:53.950Z,4.30
2019-01-15T02:22:58.974Z,5.70
2019-01-15T02:24:03.899Z,5.70
2019-01-15T02:25:09.022Z,5.70
2019-01-15T02:26:13.781Z,5.70
2019-01-15T02:27:18.881Z,5.70
2019-01-15T02:28:23.596Z,5.70
2019-01-15T02:29:28.457Z,5.60
2019-01-15T02:30:33.270Z,5.70
2019-01-15T02:31:38.041Z,5.70
2019-01-15T02:32:42.816Z,5.80
2019-01-15T02:33:47.647Z,5.80
2019-01-15T02:34:52.383Z,5.80
2019-01-15T02:35:57.247Z,5.90
2019-01-15T02:37:02.000Z,5.90
2019-01-15T02:38:06.761Z,6.00
2019-01-15T02:39:11.521Z,6.00
2019-01-15T02:40:16.574Z,6.00
2019-01-15T02:41:21.362Z,6.00
2019-01-15T02:42:26.145Z,5.90
2019-01-15T02:43:31.038Z,6.00
2019-01-15T02:44:35.790Z,5.90
2019-01-15T02:45:40.857Z,5.90
2019-01-15T02:46:45.571Z,5.90
2019-01-15T02:47:54.161Z,5.90
2019-01-15T02:48:58.941Z,5.90
2019-01-15T02:50:06.691Z,5.90
2019-01-15T02:51:11.485Z,6.00
2019-01-15T02:52:18.652Z,6.00
2019-01-15T02:53:26.168Z,5.90
2019-01-15T02:54:30.913Z,5.90
2019-01-15T02:55:35.734Z,5.90
2019-01-15T02:56:40.494Z,5.90
2019-01-15T02:57:45.370Z,6.00
2019-01-15T02:58:50.604Z,6.00
2019-01-15T02:59:55.468Z,6.00
2019-01-15T03:01:00.283Z,6.00
2019-01-15T03:02:05.342Z,6.00
2019-01-15T03:03:13.137Z,6.00
2019-01-15T03:04:18.280Z,6.00
2019-01-15T03:05:23.742Z,6.00
2019-01-15T03:06:28.528Z,6.00
2019-01-15T03:07:33.589Z,5.90
2019-01-15T03:08:38.316Z,5.90
2019-01-15T03:09:46.121Z,5.90
2019-01-15T03:10:51.300Z,5.90
2019-01-15T03:11:56.022Z,6.00
2019-01-15T03:13:03.795Z,6.00
2019-01-15T03:14:08.622Z,6.10
2019-01-15T03:15:13.542Z,6.00
2019-01-15T03:16:18.240Z,6.00
2019-01-15T03:17:23.571Z,6.10
2019-01-15T03:18:28.381Z,6.10
2019-01-15T03:19:33.171Z,6.10
2019-01-15T03:20:38.038Z,6.10
2019-01-15T03:21:42.791Z,6.10
2019-01-15T03:22:47.565Z,6.20
2019-01-15T03:23:55.686Z,6.20
2019-01-15T03:25:00.402Z,6.20
2019-01-15T03:26:05.322Z,6.30
2019-01-15T03:27:10.110Z,6.30
2019-01-15T03:28:14.861Z,6.20
2019-01-15T03:29:19.663Z,6.10
2019-01-15T03:30:25.414Z,6.10
2019-01-15T03:31:30.251Z,6.10
2019-01-15T03:32:35.142Z,6.10
2019-01-15T03:33:39.931Z,6.10
2019-01-15T03:34:44.846Z,6.10
2019-01-15T03:35:49.585Z,6.20
2019-01-15T03:36:54.363Z,6.20
2019-01-15T03:38:02.194Z,6.20
2019-01-15T03:39:09.312Z,6.20
2019-01-15T03:40:17.286Z,6.20
2019-01-15T03:41:22.131Z,6.20
2019-01-15T03:42:27.100Z,6.30
2019-01-15T03:43:31.906Z,6.30
2019-01-15T03:44:36.661Z,6.30
2019-01-15T03:45:41.385Z,5.90
2019-01-15T03:46:46.141Z,6.30
2019-01-15T03:47:50.938Z,6.30
2019-01-15T03:48:55.832Z,6.30
2019-01-15T03:50:00.690Z,6.30
2019-01-15T03:51:05.506Z,6.30
2019-01-15T03:52:10.321Z,6.30
2019-01-15T03:53:15.161Z,6.30
2019-01-15T03:54:19.894Z,6.40
2019-01-15T03:55:24.778Z,6.40
2019-01-15T03:56:29.522Z,6.30
2019-01-15T03:57:34.290Z,6.30
2019-01-15T03:58:39.681Z,6.30
2019-01-15T03:59:44.551Z,6.40
2019-01-15T04:00:49.415Z,7.30
2019-01-15T04:01:54.184Z,6.40
2019-01-15T04:02:58.916Z,6.30
2019-01-15T04:04:03.770Z,6.40
2019-01-15T04:05:09.053Z,6.30
2019-01-15T04:06:13.828Z,6.30
2019-01-15T04:07:19.340Z,6.30
2019-01-15T04:08:24.193Z,6.30
2019-01-15T04:09:29.101Z,6.30
2019-01-15T04:10:33.996Z,6.30
2019-01-15T04:11:39.292Z,6.30
2019-01-15T04:12:44.242Z,6.30
2019-01-15T04:13:49.001Z,6.30
2019-01-15T04:14:53.770Z,6.30
2019-01-15T04:15:58.622Z,6.70
2019-01-15T04:17:03.428Z,6.40
2019-01-15T04:18:08.591Z,6.30
2019-01-15T04:19:13.336Z,5.90
2019-01-15T04:20:18.305Z,6.30
2019-01-15T04:21:23.195Z,6.20
2019-01-15T04:22:28.110Z,6.20
2019-01-15T04:23:32.846Z,6.20
2019-01-15T04:24:37.998Z,6.20
2019-01-15T04:25:42.764Z,6.30
2019-01-15T04:26:47.486Z,6.30
2019-01-15T04:27:52.666Z,6.30
2019-01-15T04:28:57.397Z,6.30
2019-01-15T04:30:02.154Z,6.40
2019-01-15T04:31:06.903Z,6.40
2019-01-15T04:32:11.615Z,6.40
2019-01-15T04:33:16.401Z,6.30
2019-01-15T04:34:21.215Z,6.40
2019-01-15T04:35:25.968Z,6.30
2019-01-15T04:36:30.688Z,6.30
2019-01-15T04:37:35.497Z,6.40
2019-01-15T04:38:40.325Z,6.40
2019-01-15T04:39:45.072Z,6.50
2019-01-15T04:40:49.826Z,6.50
2019-01-15T04:41:54.665Z,6.50
2019-01-15T04:42:59.464Z,6.50
2019-01-15T04:45:40.039Z,6.40
2019-01-15T04:45:44.083Z,6.40
2019-01-15T04:46:48.818Z,6.40
2019-01-15T04:47:53.700Z,6.40
2019-01-15T04:48:58.412Z,6.40
2019-01-15T04:50:03.462Z,6.30
2019-01-15T04:51:08.629Z,6.30
2019-01-15T04:52:13.404Z,6.30
2019-01-15T04:53:18.895Z,6.30
2019-01-15T04:54:23.962Z,6.20
2019-01-15T04:55:28.910Z,6.20
2019-01-15T04:56:34.678Z,6.30
2019-01-15T04:57:39.831Z,6.30
2019-01-15T04:58:46.343Z,6.40
2019-01-15T04:59:51.565Z,6.40
2019-01-15T05:00:56.545Z,6.40
2019-01-15T05:02:01.804Z,6.40
2019-01-15T05:03:08.825Z,6.30
2019-01-15T05:04:13.709Z,6.30
2019-01-15T05:05:21.231Z,6.30
2019-01-15T05:06:26.136Z,6.30
2019-01-15T05:07:31.046Z,6.30
2019-01-15T05:08:36.182Z,6.40
2019-01-15T05:09:40.988Z,6.40
2019-01-15T05:10:45.714Z,6.50
2019-01-15T05:11:50.489Z,6.50
2019-01-15T05:12:55.560Z,6.60
2019-01-15T05:14:00.514Z,6.60
2019-01-15T05:15:07.009Z,6.60
2019-01-15T05:16:11.762Z,6.10
2019-01-15T05:17:16.576Z,6.60
2019-01-15T05:18:21.330Z,6.50
2019-01-15T05:19:26.761Z,6.50
2019-01-15T05:20:31.737Z,6.40
2019-01-15T05:21:39.973Z,6.40
2019-01-15T05:22:44.990Z,6.40
2019-01-15T05:23:52.074Z,6.40
2019-01-15T05:24:56.859Z,6.40
2019-01-15T05:26:01.872Z,6.40
2019-01-15T05:27:06.697Z,6.40
2019-01-15T05:28:12.107Z,6.50
2019-01-15T05:29:16.818Z,6.50
2019-01-15T05:30:26.713Z,6.50
2019-01-15T05:31:31.567Z,6.50
2019-01-15T05:32:36.498Z,7.10
2019-01-15T05:33:41.622Z,6.40
2019-01-15T05:34:46.484Z,6.40
2019-01-15T05:35:51.709Z,6.40
2019-01-15T05:36:56.563Z,6.40
2019-01-15T05:38:01.341Z,6.40
2019-01-15T05:39:08.617Z,6.40
2019-01-15T05:40:16.892Z,6.40
2019-01-15T05:41:21.640Z,6.40
2019-01-15T05:42:26.428Z,6.50
2019-01-15T05:43:35.434Z,6.50
2019-01-15T05:44:37.617Z,6.60
2019-01-15T05:45:45.060Z,6.50
2019-01-15T05:46:49.830Z,6.50
2019-01-15T05:47:55.021Z,6.40
2019-01-15T05:48:59.858Z,6.30
2019-01-15T05:50:05.340Z,6.40
2019-01-15T05:51:26.425Z,6.30
2019-01-15T05:52:32.815Z,6.30
2019-01-15T05:53:37.744Z,6.20
2019-01-15T05:54:43.799Z,6.20
2019-01-15T05:55:48.642Z,6.10
2019-01-15T05:56:53.378Z,6.10
2019-01-15T05:57:58.152Z,6.10
2019-01-15T05:59:02.913Z,6.10
2019-01-15T06:00:09.549Z,6.20
2019-01-15T06:01:14.311Z,6.20
2019-01-15T06:02:19.077Z,6.20
2019-01-15T06:03:23.853Z,6.30
2019-01-15T06:04:30.556Z,6.30
2019-01-15T06:05:35.363Z,6.30
2019-01-15T06:06:40.210Z,6.40
2019-01-15T06:07:45.011Z,6.40
2019-01-15T06:08:49.867Z,6.40
2019-01-15T06:09:54.628Z,7.10
2019-01-15T06:10:59.663Z,6.30
2019-01-15T06:12:06.255Z,6.40
2019-01-15T06:13:10.957Z,6.40
2019-01-15T06:14:15.736Z,6.40
2019-01-15T06:15:20.489Z,6.40
2019-01-15T06:16:25.288Z,6.40
2019-01-15T06:17:30.400Z,6.40
2019-01-15T06:18:35.109Z,6.40
2019-01-15T06:19:39.828Z,6.40
2019-01-15T06:20:48.949Z,5.50
2019-01-15T06:21:53.980Z,6.50
2019-01-15T06:22:58.864Z,6.50
2019-01-15T06:24:03.657Z,6.60
2019-01-15T06:25:08.847Z,6.60
2019-01-15T06:26:15.901Z,6.60
2019-01-15T06:27:20.725Z,6.50
2019-01-15T06:28:27.292Z,6.50
2019-01-15T06:29:37.972Z,6.50
2019-01-15T06:30:42.812Z,6.40
2019-01-15T06:31:47.652Z,6.40
2019-01-15T06:32:52.427Z,6.50
2019-01-15T06:33:57.262Z,6.50
2019-01-15T06:35:02.013Z,6.50
2019-01-15T06:36:06.801Z,6.50
2019-01-15T06:37:11.817Z,6.40
2019-01-15T06:38:16.868Z,6.40
2019-01-15T06:39:21.629Z,6.20
2019-01-15T06:40:26.479Z,6.40
2019-01-15T06:41:31.230Z,6.20
2019-01-15T06:42:36.120Z,6.40
2019-01-15T06:43:41.202Z,6.50
2019-01-15T06:44:46.201Z,6.50
2019-01-15T06:46:02.647Z,6.50
2019-01-15T06:47:13.385Z,6.50
2019-01-15T06:48:19.690Z,6.50
2019-01-15T06:49:26.273Z,6.50
2019-01-15T06:50:31.767Z,6.60
2019-01-15T06:51:37.877Z,6.50
2019-01-15T06:52:43.393Z,6.50
2019-01-15T06:53:49.892Z,6.50
2019-01-15T06:54:59.246Z,6.50
2019-01-15T06:56:04.408Z,6.50
2019-01-15T06:57:09.693Z,6.20
2019-01-15T06:58:14.565Z,6.60
2019-01-15T06:59:19.905Z,6.70
2019-01-15T07:00:27.006Z,6.70
2019-01-15T07:01:31.824Z,6.70
2019-01-15T07:02:37.977Z,6.70
2019-01-15T07:03:44.816Z,6.70
2019-01-15T07:04:50.350Z,6.70
2019-01-15T07:05:55.403Z,7.10
2019-01-15T07:07:05.541Z,6.70
2019-01-15T07:08:12.850Z,6.70
2019-01-15T07:09:22.883Z,6.80
2019-01-15T07:10:30.711Z,6.80
2019-01-15T07:11:35.460Z,6.90
2019-01-15T07:12:40.192Z,6.90
2019-01-15T07:13:44.989Z,6.80
2019-01-15T07:14:49.767Z,6.90
2019-01-15T07:15:55.325Z,6.90
2019-01-15T07:17:00.548Z,6.90
2019-01-15T07:18:05.529Z,6.90
2019-01-15T07:19:10.390Z,6.30
2019-01-15T07:20:15.709Z,6.70
2019-01-15T07:21:20.525Z,6.70
2019-01-15T07:22:25.421Z,6.80
2019-01-15T07:23:30.505Z,6.90
2019-01-15T07:24:35.446Z,6.70
2019-01-15T07:25:40.352Z,6.80
2019-01-15T07:26:45.249Z,6.80
2019-01-15T07:27:50.030Z,6.80
2019-01-15T07:28:54.820Z,6.80
2019-01-15T07:30:00.189Z,7.10
2019-01-15T07:31:05.115Z,6.80
2019-01-15T07:32:09.836Z,6.70
2019-01-15T07:33:14.980Z,6.80
2019-01-15T07:34:19.765Z,6.80
2019-01-15T07:35:24.589Z,6.80
2019-01-15T07:36:29.404Z,6.90
2019-01-15T07:37:37.276Z,6.90
2019-01-15T07:38:42.122Z,6.90
2019-01-15T07:39:49.705Z,6.90
2019-01-15T07:40:54.527Z,6.90
2019-01-15T07:41:59.357Z,6.90
2019-01-15T07:43:04.523Z,6.90
2019-01-15T07:44:09.357Z,6.90
2019-01-15T07:45:14.301Z,7.00
2019-01-15T07:46:19.188Z,6.90
2019-01-15T07:47:24.018Z,6.90
2019-01-15T07:48:28.778Z,8.30
2019-01-15T07:49:33.896Z,7.00
2019-01-15T07:50:38.715Z,7.00
2019-01-15T07:51:43.614Z,7.00
2019-01-15T07:52:48.755Z,6.90
2019-01-15T07:53:53.555Z,6.90
2019-01-15T07:55:00.239Z,6.90
2019-01-15T07:56:05.444Z,6.90
2019-01-15T07:57:10.353Z,7.00
2019-01-15T07:58:15.111Z,6.30
2019-01-15T07:59:19.916Z,6.90
2019-01-15T08:00:24.899Z,6.90
2019-01-15T08:01:29.845Z,6.90
2019-01-15T08:02:34.964Z,6.90
2019-01-15T08:03:39.832Z,7.50
2019-01-15T08:04:44.620Z,6.90
2019-01-15T08:05:49.449Z,7.00
2019-01-15T08:06:54.391Z,7.00
2019-01-15T08:07:59.236Z,7.00
2019-01-15T08:09:06.516Z,7.00
2019-01-15T08:10:17.215Z,7.00
2019-01-15T08:11:19.728Z,7.00
2019-01-15T08:12:27.693Z,7.00
2019-01-15T08:13:32.679Z,7.00
2019-01-15T08:14:38.396Z,7.10
2019-01-15T08:15:48.180Z,7.20
2019-01-15T08:16:53.212Z,7.20
2019-01-15T08:18:00.819Z,7.20
2019-01-15T08:19:07.507Z,7.20
2019-01-15T08:20:13.205Z,7.20
2019-01-15T08:21:18.270Z,7.20
2019-01-15T08:22:27.035Z,7.20
2019-01-15T08:23:31.821Z,7.30
2019-01-15T08:24:36.782Z,7.30
2019-01-15T08:25:41.891Z,7.20
2019-01-15T08:26:46.763Z,7.20
2019-01-15T08:27:51.495Z,7.20
2019-01-15T08:28:56.445Z,7.20
2019-01-15T08:30:28.865Z,7.30
2019-01-15T08:31:33.671Z,7.30
2019-01-15T08:32:38.642Z,7.40
2019-01-15T08:33:43.803Z,7.40
2019-01-15T08:34:48.638Z,7.30
2019-01-15T08:35:53.485Z,6.30
2019-01-15T08:36:58.360Z,7.40
2019-01-15T08:38:03.516Z,7.50
2019-01-15T08:39:09.257Z,7.50
2019-01-15T08:40:14.471Z,8.40
2019-01-15T08:41:24.863Z,7.50
2019-01-15T08:42:29.642Z,7.40
2019-01-15T08:43:34.358Z,7.40
2019-01-15T08:44:39.222Z,7.40
2019-01-15T08:45:44.007Z,7.40
2019-01-15T08:46:48.747Z,7.40
2019-01-15T08:47:57.405Z,7.40
2019-01-15T08:49:02.256Z,8.80
2019-01-15T08:50:10.394Z,7.50
2019-01-15T08:51:18.171Z,7.50
2019-01-15T08:52:22.987Z,7.50
2019-01-15T08:53:27.912Z,7.50
2019-01-15T08:54:34.944Z,7.50
2019-01-15T08:55:42.697Z,7.60
2019-01-15T08:56:48.890Z,7.60
2019-01-15T08:57:54.051Z,9.00
2019-01-15T08:58:58.843Z,7.60
2019-01-15T09:00:03.604Z,7.60
2019-01-15T09:01:08.320Z,8.70
2019-01-15T09:02:21.592Z,9.00
2019-01-15T09:03:26.629Z,7.70
2019-01-15T09:04:31.390Z,7.70
2019-01-15T09:05:37.349Z,7.70
2019-01-15T09:06:43.163Z,7.70
2019-01-15T09:07:51.060Z,7.70
2019-01-15T09:08:56.156Z,7.70
2019-01-15T09:10:00.909Z,7.70
2019-01-15T09:11:08.812Z,7.70
2019-01-15T09:12:17.664Z,7.80
2019-01-15T09:13:31.760Z,7.70
2019-01-15T09:14:39.680Z,7.70
2019-01-15T09:15:49.693Z,7.70
2019-01-15T09:16:54.496Z,7.70
2019-01-15T09:18:01.617Z,7.70
2019-01-15T09:19:06.429Z,7.70
2019-01-15T09:20:22.028Z,7.70
2019-01-15T09:21:26.789Z,8.10
2019-01-15T09:22:31.593Z,7.70
2019-01-15T09:23:36.445Z,7.80
2019-01-15T09:24:41.172Z,7.80
2019-01-15T09:25:45.917Z,7.80
2019-01-15T09:26:50.975Z,7.80
2019-01-15T09:27:55.970Z,7.90
2019-01-15T09:29:00.760Z,8.50
2019-01-15T09:30:08.290Z,7.60
2019-01-15T09:31:16.181Z,7.90
2019-01-15T09:32:21.168Z,7.90
2019-01-15T09:33:26.106Z,7.90
2019-01-15T09:34:30.920Z,7.90
2019-01-15T09:35:35.653Z,7.90
2019-01-15T09:36:40.418Z,7.90
2019-01-15T09:37:46.808Z,7.80
2019-01-15T09:38:51.693Z,7.80
2019-01-15T09:39:56.568Z,7.90
2019-01-15T09:41:01.333Z,8.00
2019-01-15T09:42:07.689Z,7.90
2019-01-15T09:43:12.549Z,8.00
2019-01-15T09:44:17.298Z,8.00
2019-01-15T09:45:26.881Z,7.80
2019-01-15T09:46:31.644Z,8.00
2019-01-15T09:47:37.976Z,8.10
2019-01-15T09:48:42.756Z,8.10
2019-01-15T09:49:47.503Z,8.10
2019-01-15T09:50:52.672Z,8.10
2019-01-15T09:51:57.454Z,8.10
2019-01-15T09:53:03.096Z,8.10
2019-01-15T09:54:10.299Z,8.10
2019-01-15T09:55:15.156Z,8.10
2019-01-15T09:56:20.143Z,8.20
2019-01-15T09:57:24.918Z,8.20
2019-01-15T09:58:31.838Z,8.20
2019-01-15T09:59:36.601Z,8.20
2019-01-15T10:00:41.326Z,8.20
2019-01-15T10:01:46.192Z,8.20
2019-01-15T10:02:51.052Z,8.10
2019-01-15T10:03:56.183Z,8.10
2019-01-15T10:05:01.169Z,8.10
2019-01-15T10:06:08.773Z,8.10
2019-01-15T10:07:13.540Z,8.10
2019-01-15T10:08:19.832Z,8.10
2019-01-15T10:09:24.960Z,8.20
2019-01-15T10:10:29.711Z,8.20
2019-01-15T10:11:34.446Z,8.20
2019-01-15T10:12:39.221Z,8.20
2019-01-15T10:13:48.296Z,8.30
2019-01-15T10:14:56.163Z,8.20
2019-01-15T10:16:00.956Z,8.20
2019-01-15T10:17:05.950Z,8.20
2019-01-15T10:18:10.668Z,8.20
2019-01-15T10:19:15.441Z,8.20
2019-01-15T10:20:22.284Z,8.20
2019-01-15T10:21:30.377Z,8.20
2019-01-15T10:22:45.714Z,8.20
2019-01-15T10:23:51.945Z,8.20
2019-01-15T10:24:56.823Z,8.20
2019-01-15T10:26:04.676Z,9.40
2019-01-15T10:27:09.685Z,8.30
2019-01-15T10:28:15.415Z,8.30
2019-01-15T10:29:21.557Z,8.30
2019-01-15T10:30:40.755Z,8.30
2019-01-15T10:32:25.680Z,8.30
2019-01-15T10:33:36.641Z,8.40
2019-01-15T10:34:43.253Z,8.40
2019-01-15T10:35:55.409Z,8.40
2019-01-15T10:36:58.612Z,8.40
2019-01-15T10:38:03.445Z,8.30
2019-01-15T10:39:12.652Z,8.40
2019-01-15T10:40:18.490Z,8.40
2019-01-15T10:41:23.465Z,8.50
2019-01-15T10:42:31.588Z,8.50
2019-01-15T10:43:39.554Z,8.40
2019-01-15T10:44:48.629Z,8.50
2019-01-15T10:45:50.801Z,8.50
2019-01-15T10:46:56.034Z,8.50
2019-01-15T10:48:02.132Z,8.50
2019-01-15T10:49:07.074Z,8.50
2019-01-15T10:50:19.711Z,8.50
2019-01-15T10:51:24.471Z,8.50
2019-01-15T10:52:29.227Z,8.60
2019-01-15T10:53:34.007Z,8.60
2019-01-15T10:54:38.965Z,8.60
2019-01-15T10:55:43.903Z,8.70
2019-01-15T10:56:50.371Z,8.70
2019-01-15T10:57:58.355Z,8.70
2019-01-15T10:59:01.584Z,8.70
2019-01-15T11:00:08.656Z,8.60
2019-01-15T11:01:13.587Z,8.60
2019-01-15T11:02:18.291Z,8.60
2019-01-15T11:03:27.381Z,8.60
2019-01-15T11:04:36.446Z,7.80
2019-01-15T11:05:41.212Z,8.60
2019-01-15T11:06:51.095Z,8.60
2019-01-15T11:07:58.777Z,8.60
2019-01-15T11:09:10.848Z,8.70
2019-01-15T11:10:19.287Z,8.70
2019-01-15T11:11:24.211Z,8.70
2019-01-15T11:12:29.260Z,8.80
2019-01-15T11:13:39.695Z,8.80
2019-01-15T11:14:47.919Z,8.80
2019-01-15T11:15:55.532Z,8.70
2019-01-15T11:17:04.238Z,8.70
2019-01-15T11:18:09.050Z,8.70
2019-01-15T11:19:13.889Z,8.80
2019-01-15T11:20:19.758Z,8.80
2019-01-15T11:21:24.860Z,8.80
2019-01-15T11:22:31.500Z,8.80
2019-01-15T11:23:36.543Z,8.90
2019-01-15T11:24:41.785Z,8.90
2019-01-15T11:25:51.175Z,8.90
2019-01-15T11:26:56.578Z,9.00
2019-01-15T11:28:02.979Z,9.40
2019-01-15T11:29:10.093Z,9.00
2019-01-15T11:30:22.293Z,10.20
2019-01-15T11:31:27.819Z,9.00
2019-01-15T11:32:32.789Z,9.00
2019-01-15T11:33:40.897Z,8.50
2019-01-15T11:34:48.185Z,9.10
2019-01-15T11:35:55.749Z,9.10
2019-01-15T11:37:00.795Z,9.10
2019-01-15T11:38:08.891Z,9.10
2019-01-15T11:39:13.791Z,9.10
2019-01-15T11:40:19.150Z,9.10
2019-01-15T11:41:27.790Z,9.10
2019-01-15T11:42:32.832Z,9.00
2019-01-15T11:43:44.332Z,9.00
2019-01-15T11:44:52.171Z,9.00
2019-01-15T11:45:58.720Z,9.00
2019-01-15T11:47:04.921Z,9.00
2019-01-15T11:48:11.329Z,9.10
2019-01-15T11:49:17.395Z,9.00
2019-01-15T11:50:23.607Z,8.00
2019-01-15T11:51:30.474Z,9.00
2019-01-15T11:52:36.322Z,9.00
2019-01-15T11:53:42.244Z,9.00
2019-01-15T11:54:49.890Z,9.00
2019-01-15T11:55:57.235Z,9.10
2019-01-15T11:57:05.672Z,9.10
2019-01-15T11:58:10.625Z,9.10
2019-01-15T11:59:17.033Z,9.10
2019-01-15T12:00:35.215Z,9.10
2019-01-15T12:01:49.302Z,9.00
2019-01-15T12:03:22.229Z,9.00
2019-01-15T12:04:40.828Z,9.00
2019-01-15T12:05:58.492Z,9.60
2019-01-15T12:07:34.361Z,9.00
2019-01-15T12:09:10.705Z,9.80
2019-01-15T12:10:43.291Z,9.00
2019-01-15T12:12:09.949Z,9.00
2019-01-15T12:13:29.097Z,10.20
2019-01-15T12:14:51.659Z,9.00
2019-01-15T12:16:28.343Z,8.00
2019-01-15T12:17:54.977Z,9.00
2019-01-15T12:19:09.075Z,9.00
2019-01-15T12:20:45.538Z,9.00
2019-01-15T12:22:09.184Z,8.90
2019-01-15T12:23:44.734Z,8.90
2019-01-15T12:25:06.965Z,9.00
2019-01-15T12:26:32.506Z,9.00
2019-01-15T12:27:55.288Z,8.90
2019-01-15T12:29:25.244Z,9.00
2019-01-15T12:30:55.093Z,9.00
2019-01-15T12:32:21.234Z,9.00
2019-01-15T12:33:44.060Z,9.00
2019-01-15T12:35:10.550Z,9.00
2019-01-15T12:36:24.023Z,9.00
2019-01-15T12:37:46.156Z,9.00
2019-01-15T12:39:10.236Z,9.10
2019-01-15T12:40:42.676Z,9.00
2019-01-15T12:41:58.552Z,9.10
2019-01-15T12:43:22.451Z,9.10
2019-01-15T12:44:44.962Z,9.10
2019-01-15T12:46:07.720Z,9.10
2019-01-15T12:47:40.145Z,9.10
2019-01-15T12:49:09.413Z,9.10
2019-01-15T12:50:33.588Z,9.10
2019-01-15T12:52:09.352Z,9.10
2019-01-15T12:53:31.286Z,9.10
2019-01-15T12:54:46.003Z,9.10
2019-01-15T12:56:10.419Z,9.00
2019-01-15T12:57:40.361Z,9.10
2019-01-15T12:59:19.260Z,9.10
2019-01-15T13:00:51.716Z,9.00
2019-01-15T13:02:15.740Z,9.00
2019-01-15T13:03:54.450Z,8.90
2019-01-15T13:05:24.185Z,8.90
2019-01-15T13:06:46.875Z,8.90
2019-01-15T13:08:10.009Z,8.90
2019-01-15T13:09:34.000Z,9.00
2019-01-15T13:10:50.474Z,9.00
2019-01-15T13:12:18.120Z,9.00
2019-01-15T13:13:41.784Z,9.00
2019-01-15T13:15:04.041Z,9.00
2019-01-15T13:16:39.680Z,8.90
2019-01-15T13:18:01.968Z,9.00
2019-01-15T13:19:40.792Z,9.00
2019-01-15T13:21:13.869Z,9.00
2019-01-15T13:22:41.021Z,9.00
2019-01-15T13:24:10.689Z,9.00
2019-01-15T13:25:34.714Z,9.00
2019-01-15T13:27:11.228Z,9.00
2019-01-15T13:28:33.896Z,9.00
2019-01-15T13:29:57.882Z,9.00
2019-01-15T13:31:30.868Z,8.90
2019-01-15T13:32:58.299Z,8.90
2019-01-15T13:34:40.336Z,8.80
2019-01-15T13:36:02.896Z,8.80
2019-01-15T13:37:27.613Z,8.80
2019-01-15T13:39:06.343Z,8.80
2019-01-15T13:40:29.620Z,8.90
2019-01-15T13:42:01.080Z,8.80
2019-01-15T13:43:24.087Z,8.90
2019-01-15T13:44:56.990Z,8.90
2019-01-15T13:46:25.912Z,8.90
2019-01-15T13:48:08.144Z,8.80
2019-01-15T13:49:31.619Z,8.80
2019-01-15T13:51:15.074Z,8.80
2019-01-15T13:52:41.831Z,8.80
2019-01-15T13:54:29.084Z,8.90
2019-01-15T13:55:54.306Z,8.90
2019-01-15T13:57:22.604Z,8.90
2019-01-15T13:58:47.821Z,9.00
2019-01-15T14:00:19.888Z,9.00
2019-01-15T14:01:55.637Z,8.90
2019-01-15T14:03:17.764Z,8.90
2019-01-15T14:05:10.367Z,8.90
2019-01-15T14:06:39.627Z,8.90
2019-01-15T14:08:09.104Z,8.80
2019-01-15T14:09:47.885Z,8.90
2019-01-15T14:11:23.573Z,8.90
2019-01-15T14:12:54.714Z,8.80
2019-01-15T14:14:33.191Z,8.70
2019-01-15T14:16:07.735Z,8.90
2019-01-15T14:17:37.715Z,8.90
2019-01-15T14:19:02.908Z,8.90
2019-01-15T14:20:26.407Z,8.80
2019-01-15T14:22:06.049Z,8.90
2019-01-15T14:23:29.433Z,8.90
2019-01-15T14:24:47.050Z,8.90
2019-01-15T14:26:13.563Z,8.90
2019-01-15T14:27:55.142Z,8.60
2019-01-15T14:29:36.920Z,8.90
2019-01-15T14:31:02.109Z,8.80
2019-01-15T14:32:32.221Z,10.00
2019-01-15T14:33:56.187Z,8.80
2019-01-15T14:35:22.990Z,8.90
2019-01-15T14:36:40.384Z,8.90
2019-01-15T14:38:08.985Z,8.90
2019-01-15T14:39:31.764Z,8.90
2019-01-15T14:40:54.077Z,8.90
2019-01-15T14:42:27.405Z,8.90
2019-01-15T14:43:54.340Z,8.90
2019-01-15T14:45:33.109Z,8.90
2019-01-15T14:47:08.568Z,8.90
2019-01-15T14:48:32.286Z,8.90
2019-01-15T14:50:05.372Z,8.90
2019-01-15T14:51:35.130Z,8.90
2019-01-15T14:53:06.434Z,8.80
2019-01-15T14:54:46.758Z,8.80
2019-01-15T14:56:13.753Z,8.80
2019-01-15T14:57:37.546Z,8.80
2019-01-15T14:59:07.076Z,8.80
2019-01-15T15:00:58.480Z,8.70
2019-01-15T15:02:33.439Z,9.00
2019-01-15T15:04:00.241Z,8.80
2019-01-15T15:05:25.064Z,8.80
2019-01-15T15:06:57.506Z,8.80
2019-01-15T15:08:13.857Z,8.80
2019-01-15T15:09:54.542Z,8.80
2019-01-15T15:11:16.808Z,8.70
2019-01-15T15:12:43.405Z,8.70
2019-01-15T15:14:11.698Z,8.70
2019-01-15T15:15:47.743Z,8.70
2019-01-15T15:17:11.163Z,8.60
2019-01-15T15:18:26.549Z,8.60
2019-01-15T15:19:49.596Z,8.70
2019-01-15T15:21:20.569Z,8.70
2019-01-15T15:22:44.099Z,9.90
2019-01-15T15:24:13.378Z,8.70
2019-01-15T15:25:45.725Z,8.70
2019-01-15T15:27:16.773Z,8.70
2019-01-15T15:28:35.405Z,8.70
2019-01-15T15:30:13.729Z,8.70